createdAt,value
2023-02-20T00:01:34.894Z,10.57
2023-02-20T00:04:01.877Z,14.50
2023-02-20T00:06:28.938Z,14.80
2023-02-20T00:08:55.885Z,11.27
2023-02-20T00:11:22.881Z,11.73
2023-02-20T00:13:50.267Z,10.63
2023-02-20T00:16:17.473Z,16.08
2023-02-20T00:18:45.774Z,11.02
2023-02-20T00:21:13.171Z,12.52
2023-02-20T00:23:40.387Z,11.35
2023-02-20T00:26:13.153Z,14.10
2023-02-20T00:31:13.140Z,12.70
2023-02-20T00:33:40.088Z,14.48
2023-02-20T00:36:07.814Z,18.65
2023-02-20T00:38:34.744Z,12.80
2023-02-20T00:41:01.616Z,12.75
2023-02-20T00:43:28.889Z,18.20
2023-02-20T00:45:55.923Z,13.93
2023-02-20T00:48:22.872Z,10.13
2023-02-20T00:50:49.721Z,18.45
2023-02-20T00:53:16.636Z,12.75
2023-02-20T00:55:43.762Z,13.65
2023-02-20T00:58:10.717Z,11.88
2023-02-20T01:00:37.689Z,14.90
2023-02-20T01:03:04.679Z,17.20
2023-02-20T01:05:31.673Z,13.27
2023-02-20T01:07:58.476Z,14.40
2023-02-20T01:10:25.871Z,14.15
2023-02-20T01:12:52.689Z,11.85
2023-02-20T01:15:19.728Z,12.75
2023-02-20T01:17:47.121Z,16.90
2023-02-20T01:20:13.991Z,12.30
2023-02-20T01:22:41.643Z,15.20
2023-02-20T01:25:08.646Z,10.32
2023-02-20T01:27:35.573Z,13.82
2023-02-20T01:30:02.871Z,11.70
2023-02-20T01:32:29.748Z,12.30
2023-02-20T01:34:56.833Z,11.95
2023-02-20T01:37:23.666Z,16.20
2023-02-20T01:39:51.180Z,15.73
2023-02-20T01:42:25.033Z,13.32
2023-02-20T01:44:52.107Z,18.23
2023-02-20T01:47:23.736Z,15.38
2023-02-20T01:50:03.436Z,18.80
2023-02-20T01:52:33.854Z,14.70
2023-02-20T01:55:24.280Z,11.40
2023-02-20T01:58:01.190Z,16.52
2023-02-20T02:00:28.836Z,17.40
2023-02-20T02:02:58.512Z,18.15
2023-02-20T02:05:26.222Z,13.98
2023-02-20T02:07:53.319Z,15.52
2023-02-20T02:10:31.430Z,18.13
2023-02-20T02:12:58.554Z,14.57
2023-02-20T02:15:26.086Z,18.23
2023-02-20T02:18:17.317Z,20.20
2023-02-20T02:21:07.735Z,17.67
2023-02-20T02:24:49.462Z,17.05
2023-02-20T02:27:59.572Z,10.52
2023-02-20T02:30:47.544Z,19.05
2023-02-20T02:33:32.789Z,14.65
2023-02-20T02:36:20.825Z,27.00
2023-02-20T02:39:42.758Z,23.10
2023-02-20T02:42:29.090Z,16.52
2023-02-20T02:45:23.591Z,22.38
2023-02-20T02:48:01.217Z,19.55
2023-02-20T02:50:36.683Z,17.10
2023-02-20T02:53:05.770Z,20.27
2023-02-20T02:55:36.285Z,21.50
2023-02-20T02:58:05.666Z,18.40
2023-02-20T03:01:03.518Z,24.25
2023-02-20T03:03:35.406Z,19.17
2023-02-20T03:06:29.186Z,21.35
2023-02-20T03:09:28.877Z,20.50
2023-02-20T03:11:58.680Z,16.33
2023-02-20T03:15:00.732Z,16.45
2023-02-20T03:17:43.379Z,22.83
2023-02-20T03:20:15.579Z,22.42
2023-02-20T03:22:53.074Z,16.83
2023-02-20T03:25:40.025Z,20.02
2023-02-20T03:28:12.180Z,27.40
2023-02-20T03:31:15.093Z,16.00
2023-02-20T03:34:19.695Z,17.27
2023-02-20T03:37:27.870Z,22.65
2023-02-20T03:40:18.349Z,16.35
2023-02-20T03:43:07.591Z,18.83
2023-02-20T03:45:38.200Z,22.90
2023-02-20T03:48:14.520Z,22.00
2023-02-20T03:51:00.662Z,25.42
2023-02-20T03:53:28.139Z,26.90
2023-02-20T03:56:00.148Z,20.85
2023-02-20T03:58:29.149Z,17.95
2023-02-20T04:00:58.738Z,18.85
2023-02-20T04:03:31.099Z,23.77
2023-02-20T04:06:00.744Z,16.85
2023-02-20T04:09:01.728Z,19.77
2023-02-20T04:11:39.806Z,19.98
2023-02-20T04:14:08.669Z,18.80
2023-02-20T04:16:51.759Z,17.70
2023-02-20T04:19:19.116Z,29.08
2023-02-20T04:21:55.599Z,20.63
2023-02-20T04:25:13.829Z,20.25
2023-02-20T04:27:41.037Z,17.58
2023-02-20T04:30:11.986Z,15.85
2023-02-20T04:32:39.007Z,19.95
2023-02-20T04:35:06.680Z,21.58
2023-02-20T04:37:33.589Z,17.20
2023-02-20T04:40:00.528Z,17.85
2023-02-20T04:42:27.341Z,17.17
2023-02-20T04:44:54.292Z,18.70
2023-02-20T04:47:21.145Z,20.60
2023-02-20T04:49:48.285Z,18.40
2023-02-20T04:52:15.159Z,22.15
2023-02-20T04:54:42.077Z,20.27
2023-02-20T04:57:08.948Z,18.35
2023-02-20T04:59:35.993Z,19.30
2023-02-20T05:02:03.092Z,16.27
2023-02-20T05:04:29.992Z,15.32
2023-02-20T05:06:57.730Z,18.10
2023-02-20T05:09:25.204Z,20.02
2023-02-20T05:11:52.663Z,19.92
2023-02-20T05:14:21.566Z,16.25
2023-02-20T05:16:51.304Z,21.42
2023-02-20T05:19:19.028Z,20.27
2023-02-20T05:22:05.414Z,22.88
2023-02-20T05:24:32.390Z,18.85
2023-02-20T05:27:00.101Z,19.70
2023-02-20T05:29:27.497Z,19.27
2023-02-20T05:31:54.554Z,23.55
2023-02-20T05:34:22.825Z,17.35
2023-02-20T05:36:49.919Z,19.83
2023-02-20T05:39:16.834Z,17.98
2023-02-20T05:41:43.736Z,20.60
2023-02-20T05:44:10.852Z,22.08
2023-02-20T05:46:42.475Z,20.85
2023-02-20T05:49:10.804Z,19.65
2023-02-20T05:51:38.076Z,20.73
2023-02-20T05:54:05.957Z,19.25
2023-02-20T05:56:33.148Z,23.30
2023-02-20T05:59:00.671Z,24.85
2023-02-20T06:01:30.961Z,19.70
2023-02-20T06:03:58.414Z,23.77
2023-02-20T06:06:32.269Z,25.20
2023-02-20T06:08:59.264Z,22.13
2023-02-20T06:11:26.368Z,25.00
2023-02-20T06:13:53.214Z,21.95
2023-02-20T06:16:28.792Z,24.00
2023-02-20T06:18:56.583Z,23.73
2023-02-20T06:21:26.947Z,27.75
2023-02-20T06:23:55.461Z,27.63
2023-02-20T06:26:23.430Z,26.90
2023-02-20T06:28:50.882Z,29.90
2023-02-20T06:31:28.414Z,28.17
2023-02-20T06:33:55.881Z,27.45
2023-02-20T06:36:32.106Z,27.88
2023-02-20T06:39:03.764Z,38.67
2023-02-20T06:41:33.817Z,25.83
2023-02-20T06:44:00.842Z,26.33
2023-02-20T06:46:28.058Z,30.42
2023-02-20T06:48:59.242Z,30.90
2023-02-20T06:51:33.710Z,34.92
2023-02-20T06:54:03.415Z,29.08
2023-02-20T06:56:34.399Z,29.52
2023-02-20T06:59:03.897Z,28.80
2023-02-20T07:01:39.620Z,28.77
2023-02-20T07:04:09.753Z,29.83
2023-02-20T07:06:37.754Z,33.28
2023-02-20T07:09:04.829Z,31.73
2023-02-20T07:11:31.667Z,38.80
2023-02-20T07:13:58.804Z,34.05
2023-02-20T07:16:26.053Z,27.38
2023-02-20T07:18:52.943Z,28.63
2023-02-20T07:21:19.934Z,42.60
2023-02-20T07:23:46.751Z,30.00
2023-02-20T07:26:27.079Z,29.15
2023-02-20T07:28:56.056Z,39.63
2023-02-20T07:31:23.069Z,33.03
2023-02-20T07:33:52.695Z,34.40
2023-02-20T07:36:20.133Z,26.40
2023-02-20T07:38:58.798Z,30.05
2023-02-20T07:41:32.301Z,38.40
2023-02-20T07:43:59.398Z,28.00
2023-02-20T07:46:26.383Z,27.75
2023-02-20T07:48:53.324Z,26.08
2023-02-20T07:51:20.492Z,26.58
2023-02-20T07:53:53.270Z,20.70
2023-02-20T07:56:21.623Z,31.35
2023-02-20T07:58:49.339Z,27.63
2023-02-20T08:01:17.462Z,28.52
2023-02-20T08:03:44.480Z,18.88
2023-02-20T08:06:11.848Z,25.17
2023-02-20T08:08:39.174Z,25.17
2023-02-20T08:11:09.918Z,27.95
2023-02-20T08:13:38.331Z,23.25
2023-02-20T08:16:05.905Z,25.00
2023-02-20T08:18:32.901Z,28.23
2023-02-20T08:20:59.747Z,26.25
2023-02-20T08:23:26.893Z,22.85
2023-02-20T08:25:54.386Z,18.98
2023-02-20T08:28:22.092Z,18.17
2023-02-20T08:30:48.976Z,22.42
2023-02-20T08:33:16.051Z,20.98
2023-02-20T08:35:43.216Z,18.30
2023-02-20T08:38:28.011Z,20.20
2023-02-20T08:40:54.977Z,18.58
2023-02-20T08:43:22.790Z,18.38
2023-02-20T08:45:50.440Z,18.98
2023-02-20T08:48:17.595Z,21.73
2023-02-20T08:50:47.050Z,17.63
2023-02-20T08:53:15.204Z,22.85
2023-02-20T08:55:43.734Z,21.13
2023-02-20T08:58:10.841Z,23.05
2023-02-20T09:00:37.825Z,28.25
2023-02-20T09:03:08.807Z,17.48
2023-02-20T09:05:39.029Z,23.75
2023-02-20T09:08:06.461Z,23.98
2023-02-20T09:10:33.887Z,21.63
2023-02-20T09:13:01.541Z,21.35
2023-02-20T09:15:29.322Z,22.13
2023-02-20T09:17:56.444Z,23.80
2023-02-20T09:20:23.422Z,24.73
2023-02-20T09:22:51.131Z,31.10
2023-02-20T09:25:19.061Z,25.55
2023-02-20T09:27:45.980Z,29.33
2023-02-20T09:30:19.819Z,30.58
2023-02-20T09:32:48.284Z,28.63
2023-02-20T09:35:23.628Z,30.63
2023-02-20T09:37:50.751Z,29.90
2023-02-20T09:40:22.208Z,25.92
2023-02-20T09:43:07.579Z,27.38
2023-02-20T09:45:37.209Z,30.08
2023-02-20T09:48:34.732Z,23.33
2023-02-20T09:51:15.549Z,29.88
2023-02-20T09:54:28.598Z,25.00
2023-02-20T09:57:10.221Z,26.07
2023-02-20T09:59:52.568Z,26.13
2023-02-20T10:02:35.131Z,25.97
2023-02-20T10:05:26.387Z,34.80
2023-02-20T10:07:53.774Z,23.02
2023-02-20T10:10:39.025Z,27.10
2023-02-20T10:13:30.748Z,31.13
2023-02-20T10:16:18.886Z,28.40
2023-02-20T10:19:23.170Z,28.45
2023-02-20T10:22:41.445Z,23.73
2023-02-20T10:25:46.067Z,26.33
2023-02-20T10:28:18.436Z,23.20
2023-02-20T10:31:16.460Z,23.85
2023-02-20T10:33:50.497Z,28.08
2023-02-20T10:36:31.186Z,25.70
2023-02-20T10:39:07.688Z,27.75
2023-02-20T10:42:00.613Z,23.73
2023-02-20T10:44:56.280Z,20.65
2023-02-20T10:47:36.554Z,24.92
2023-02-20T10:50:08.344Z,21.15
2023-02-20T10:53:17.064Z,23.45
2023-02-20T10:56:01.903Z,22.30
2023-02-20T10:58:38.762Z,20.85
2023-02-20T11:01:14.394Z,16.15
2023-02-20T11:04:15.316Z,18.85
2023-02-20T11:07:02.659Z,21.13
2023-02-20T11:09:29.910Z,18.73
2023-02-20T11:11:56.832Z,20.00
2023-02-20T11:14:44.172Z,19.15
2023-02-20T11:17:16.120Z,20.75
2023-02-20T11:19:48.644Z,19.92
2023-02-20T11:22:18.134Z,21.70
2023-02-20T11:24:46.548Z,21.30
2023-02-20T11:27:21.593Z,20.65
2023-02-20T11:29:50.004Z,23.92
2023-02-20T11:32:41.745Z,20.05
2023-02-20T11:35:18.207Z,18.63
2023-02-20T11:37:55.523Z,20.80
2023-02-20T11:40:32.242Z,18.83
2023-02-20T11:43:14.329Z,24.02
2023-02-20T11:45:42.018Z,18.58
2023-02-20T11:48:21.279Z,26.27
2023-02-20T11:50:54.817Z,21.23
2023-02-20T11:53:23.842Z,23.75
2023-02-20T11:56:10.746Z,19.98
2023-02-20T11:58:39.356Z,18.40
2023-02-20T12:01:08.248Z,20.10
2023-02-20T12:03:36.697Z,17.65
2023-02-20T12:06:41.701Z,22.35
2023-02-20T12:09:17.416Z,20.45
2023-02-20T12:11:45.062Z,15.23
2023-02-20T12:14:15.618Z,24.08
2023-02-20T12:17:30.992Z,15.15
2023-02-20T12:20:21.289Z,18.23
2023-02-20T12:23:14.210Z,18.77
2023-02-20T12:25:59.776Z,20.27
2023-02-20T12:28:30.745Z,18.55
2023-02-20T12:31:27.128Z,19.42
2023-02-20T12:34:04.116Z,16.80
2023-02-20T12:36:44.481Z,16.77
2023-02-20T12:39:32.941Z,15.68
2023-02-20T12:42:33.360Z,17.67
2023-02-20T12:45:15.734Z,17.13
2023-02-20T12:47:45.059Z,20.40
2023-02-20T12:50:34.248Z,14.00
2023-02-20T12:53:04.538Z,17.10
2023-02-20T12:56:20.432Z,16.25
2023-02-20T12:59:19.021Z,13.73
2023-02-20T13:01:46.549Z,12.07
2023-02-20T13:04:27.341Z,19.67
2023-02-20T13:07:08.139Z,13.40
2023-02-20T13:09:48.547Z,14.68
2023-02-20T13:12:17.288Z,16.27
2023-02-20T13:15:03.287Z,14.15
2023-02-20T13:17:39.840Z,12.18
2023-02-20T13:20:17.208Z,13.30
2023-02-20T13:22:44.236Z,17.38
2023-02-20T13:25:47.604Z,15.52
2023-02-20T13:31:21.473Z,18.25
2023-02-20T13:34:09.983Z,16.23
2023-02-20T13:36:39.766Z,12.27
2023-02-20T13:39:39.752Z,14.35
2023-02-20T13:42:34.004Z,12.50
2023-02-20T13:45:02.263Z,13.32
2023-02-20T13:47:34.669Z,12.43
2023-02-20T13:52:43.040Z,12.60
2023-02-20T13:55:21.127Z,10.25
2023-02-20T13:57:49.325Z,10.80
2023-02-20T14:00:55.453Z,11.25
2023-02-20T14:03:32.158Z,11.60
2023-02-20T14:06:02.117Z,13.43
2023-02-20T14:08:29.335Z,12.57
2023-02-20T14:11:04.477Z,10.90
2023-02-20T14:13:40.040Z,9.60
2023-02-20T14:16:39.187Z,9.23
2023-02-20T14:19:22.968Z,14.98
2023-02-20T14:21:50.176Z,10.63
2023-02-20T14:24:27.436Z,9.52
2023-02-20T14:26:56.904Z,12.50
2023-02-20T14:29:25.592Z,15.80
2023-02-20T14:31:56.064Z,12.20
2023-02-20T14:34:28.435Z,15.40
2023-02-20T14:37:12.541Z,10.70
2023-02-20T14:40:10.227Z,16.23
2023-02-20T14:42:44.812Z,11.02
2023-02-20T14:45:24.838Z,9.40
2023-02-20T14:48:01.097Z,11.45
2023-02-20T14:50:33.795Z,12.40
2023-02-20T14:53:23.082Z,11.23
2023-02-20T14:55:51.056Z,12.98
2023-02-20T14:58:23.343Z,11.02
2023-02-20T15:00:50.524Z,12.10
2023-02-20T15:03:30.899Z,11.80
2023-02-20T15:06:06.349Z,9.90
2023-02-20T15:08:36.143Z,10.77
2023-02-20T15:11:12.824Z,14.07
2023-02-20T15:13:45.350Z,12.10
2023-02-20T15:16:24.276Z,11.63
2023-02-20T15:18:52.214Z,11.75
2023-02-20T15:21:58.978Z,7.60
2023-02-20T15:24:25.845Z,11.43
2023-02-20T15:26:53.393Z,11.00
2023-02-20T15:29:27.757Z,10.23
2023-02-20T15:32:01.806Z,8.68
2023-02-20T15:34:38.011Z,11.05
2023-02-20T15:37:38.184Z,8.60
2023-02-20T15:40:25.028Z,8.35
2023-02-20T15:42:57.150Z,5.68
2023-02-20T15:45:28.125Z,8.05
2023-02-20T15:47:56.166Z,10.23
2023-02-20T15:50:24.157Z,9.98
2023-02-20T15:52:51.481Z,6.20
2023-02-20T15:55:22.546Z,10.48
2023-02-20T15:57:56.625Z,11.88
2023-02-20T16:00:32.924Z,10.77
2023-02-20T16:03:01.839Z,10.15
2023-02-20T16:05:29.029Z,7.97
2023-02-20T16:07:56.203Z,10.55
2023-02-20T16:10:28.770Z,8.27
2023-02-20T16:12:58.814Z,7.57
2023-02-20T16:15:28.744Z,11.50
2023-02-20T16:17:57.072Z,7.90
2023-02-20T16:20:29.091Z,9.68
2023-02-20T16:22:56.606Z,9.27
2023-02-20T16:25:24.496Z,6.85
2023-02-20T16:27:56.780Z,8.60
2023-02-20T16:30:33.238Z,11.90
2023-02-20T16:33:03.094Z,11.05
2023-02-20T16:35:30.044Z,9.20
2023-02-20T16:37:57.145Z,10.05
2023-02-20T16:40:24.012Z,9.57
2023-02-20T16:42:50.931Z,10.88
2023-02-20T16:45:19.576Z,11.00
2023-02-20T16:47:55.472Z,9.15
2023-02-20T16:50:30.323Z,7.53
2023-02-20T16:52:59.247Z,14.52
2023-02-20T16:55:37.874Z,12.20
2023-02-20T16:58:07.302Z,9.63
2023-02-20T17:00:50.909Z,7.53
2023-02-20T17:03:24.455Z,10.57
2023-02-20T17:06:00.180Z,10.20
2023-02-20T17:08:27.717Z,9.00
2023-02-20T17:10:54.784Z,7.82
2023-02-20T17:13:22.028Z,10.90
2023-02-20T17:15:49.484Z,7.20
2023-02-20T17:18:16.496Z,11.85
2023-02-20T17:20:46.244Z,10.63
2023-02-20T17:23:13.162Z,10.07
2023-02-20T17:25:40.050Z,8.43
2023-02-20T17:28:07.046Z,7.45
2023-02-20T17:30:34.233Z,8.18
2023-02-20T17:33:01.143Z,8.35
2023-02-20T17:35:29.798Z,9.30
2023-02-20T17:37:56.820Z,6.40
2023-02-20T17:40:24.185Z,6.78
2023-02-20T17:42:51.209Z,9.73
2023-02-20T17:45:18.240Z,6.82
2023-02-20T17:47:45.173Z,10.13
2023-02-20T17:50:12.238Z,7.60
2023-02-20T17:52:39.357Z,9.82
2023-02-20T17:55:06.558Z,9.48
2023-02-20T17:57:33.462Z,8.60
2023-02-20T18:00:00.387Z,8.52
2023-02-20T18:02:27.573Z,7.80
2023-02-20T18:04:54.417Z,7.40
2023-02-20T18:07:21.826Z,5.82
2023-02-20T18:09:49.147Z,6.53
2023-02-20T18:12:16.249Z,8.15
2023-02-20T18:14:45.162Z,5.90
2023-02-20T18:17:12.617Z,7.63
2023-02-20T18:19:39.607Z,10.60
2023-02-20T18:22:06.564Z,11.55
2023-02-20T18:24:35.244Z,9.55
2023-02-20T18:27:02.263Z,10.68
2023-02-20T18:29:30.147Z,8.93
2023-02-20T18:31:58.397Z,7.10
2023-02-20T18:34:27.623Z,7.72
2023-02-20T18:36:55.555Z,7.75
2023-02-20T18:39:23.360Z,7.07
2023-02-20T18:41:56.164Z,8.95
2023-02-20T18:44:23.694Z,9.25
2023-02-20T18:46:51.374Z,5.78
2023-02-20T18:49:18.248Z,7.18
2023-02-20T18:51:45.461Z,9.45
2023-02-20T18:54:27.090Z,10.65
2023-02-20T18:56:55.350Z,7.25
2023-02-20T18:59:23.533Z,11.13
2023-02-20T19:01:50.556Z,9.30
2023-02-20T19:04:17.647Z,6.82
2023-02-20T19:06:45.310Z,8.30
2023-02-20T19:09:19.600Z,7.85
2023-02-20T19:11:52.198Z,7.97
2023-02-20T19:14:20.280Z,10.48
2023-02-20T19:16:59.804Z,12.27
2023-02-20T19:19:30.616Z,9.00
2023-02-20T19:21:58.482Z,6.90
2023-02-20T19:24:25.622Z,9.50
2023-02-20T19:26:52.960Z,9.82
2023-02-20T19:29:20.248Z,8.18
2023-02-20T19:31:47.622Z,8.68
2023-02-20T19:34:15.310Z,8.40
2023-02-20T19:36:43.054Z,11.93
2023-02-20T19:39:10.769Z,14.55
2023-02-20T19:41:39.438Z,10.38
2023-02-20T19:44:07.593Z,12.20
2023-02-20T19:46:35.366Z,11.88
2023-02-20T19:49:02.331Z,17.17
2023-02-20T19:51:29.279Z,10.80
2023-02-20T19:53:56.345Z,12.23
2023-02-20T19:56:23.512Z,12.50
2023-02-20T19:58:50.709Z,8.68
2023-02-20T20:01:19.605Z,68.32
2023-02-20T20:03:47.865Z,19.25
2023-02-20T20:06:17.638Z,8.65
2023-02-20T20:09:09.342Z,10.15
2023-02-20T20:11:33.195Z,10.38
2023-02-20T20:14:00.219Z,9.90
2023-02-20T20:16:27.342Z,8.65
2023-02-20T20:18:54.648Z,10.13
2023-02-20T20:21:22.160Z,13.30
2023-02-20T20:23:49.290Z,10.27
2023-02-20T20:26:16.290Z,8.57
2023-02-20T20:28:43.468Z,9.82
2023-02-20T20:31:10.549Z,9.52
2023-02-20T20:33:37.691Z,7.60
2023-02-20T20:36:05.248Z,11.00
2023-02-20T20:38:32.130Z,10.88
2023-02-20T20:40:59.418Z,14.20
2023-02-20T20:43:26.302Z,8.60
2023-02-20T20:45:53.362Z,8.70
2023-02-20T20:48:20.391Z,9.05
2023-02-20T20:50:47.568Z,9.48
2023-02-20T20:53:17.340Z,13.73
2023-02-20T20:55:46.060Z,12.18
2023-02-20T20:58:13.389Z,12.32
2023-02-20T21:00:40.427Z,11.40
2023-02-20T21:03:11.563Z,12.40
2023-02-20T21:05:38.502Z,11.05
2023-02-20T21:08:08.342Z,8.40
2023-02-20T21:10:36.379Z,10.85
2023-02-20T21:13:03.349Z,10.85
2023-02-20T21:15:32.200Z,12.20
2023-02-20T21:17:59.759Z,15.57
2023-02-20T21:20:29.461Z,12.10
2023-02-20T21:22:58.386Z,11.40
2023-02-20T21:25:25.794Z,11.23
2023-02-20T21:27:54.741Z,12.27
2023-02-20T21:30:24.647Z,10.98
2023-02-20T21:32:52.109Z,14.38
2023-02-20T21:35:21.372Z,13.60
2023-02-20T21:37:48.870Z,10.82
2023-02-20T21:40:17.612Z,14.30
2023-02-20T21:43:03.016Z,11.23
2023-02-20T21:45:30.095Z,15.23
2023-02-20T21:47:57.193Z,11.07
2023-02-20T21:50:24.464Z,11.85
2023-02-20T21:52:51.570Z,17.83
2023-02-20T21:55:19.608Z,8.65
2023-02-20T21:57:46.907Z,10.88
2023-02-20T22:00:15.835Z,10.25
2023-02-20T22:02:42.899Z,12.95
2023-02-20T22:05:11.149Z,11.38
2023-02-20T22:07:57.188Z,10.25
2023-02-20T22:10:43.796Z,11.00
2023-02-20T22:13:30.011Z,11.27
2023-02-20T22:16:15.399Z,12.68
2023-02-20T22:19:01.184Z,13.38
2023-02-20T22:21:47.405Z,11.60
2023-02-20T22:24:38.647Z,12.77
2023-02-20T22:27:27.601Z,20.27
2023-02-20T22:30:13.814Z,20.70
2023-02-20T22:32:59.199Z,18.17
2023-02-20T22:35:45.177Z,16.05
2023-02-20T22:38:30.320Z,13.80
2023-02-20T22:41:16.002Z,13.70
2023-02-20T22:44:01.638Z,13.90
2023-02-20T22:46:47.385Z,14.40
2023-02-20T22:49:32.821Z,13.48
2023-02-20T22:52:18.072Z,12.93
2023-02-20T22:55:05.876Z,14.93
2023-02-20T22:57:53.160Z,15.18
2023-02-20T23:00:39.324Z,17.73
2023-02-20T23:03:25.605Z,15.18
2023-02-20T23:06:17.863Z,14.70
2023-02-20T23:09:07.379Z,10.48
2023-02-20T23:11:55.016Z,13.13
2023-02-20T23:14:40.839Z,20.55
2023-02-20T23:17:37.121Z,14.32
2023-02-20T23:20:33.655Z,12.65
2023-02-20T23:23:20.100Z,50.80
2023-02-20T23:26:05.250Z,59.65
2023-02-20T23:28:51.303Z,86.28
2023-02-20T23:31:37.709Z,16.63
2023-02-20T23:34:23.409Z,11.75
2023-02-20T23:37:11.727Z,13.10
2023-02-20T23:39:56.901Z,13.57
2023-02-20T23:42:42.316Z,15.82
2023-02-20T23:45:29.192Z,17.40
2023-02-20T23:48:14.314Z,31.45
2023-02-20T23:50:59.941Z,14.50
2023-02-20T23:53:45.597Z,13.88
2023-02-20T23:56:31.671Z,12.27
2023-02-20T23:59:17.028Z,15.30
